Terminal Aerodrome Forecast
Issued by NWS

Home | Current Version | Previous Version | Text Only | Print | Product List | Glossary On
Versions: 1 2 3 4 5 6 7 8 9 10 11 12 13 14 15 16 17 18 19 20 21 22 23 24
865
FTUS41 KRLX 261134
TAFCKB
TAF
KCKB 261134Z 2612/2712 00000KT 1SM BR VV003
     FM261230 00000KT 4SM BR FEW250
     FM261300 04006KT P6SM FEW040 FEW250=

USA.gov is the U.S. government's official web portal to all federal, state and local government web resources and services.